Time;durP1;ratioP1;P1;durP2;ratioP2;P2;SDS_P1;SDS_P2;PMS_P1;PMS_P2;Temp;Humidity;BMP_temperature;BMP_pressure;BME280_temperature;BME280_humidity;BME280_pressure;Samples;Min_cycle;Max_cycle;Signal;HPM_P1;HPM_P2
2022/06/01 00:00:33;;;;;;;6.10;2.40;;;10.50;99.90;;;;;;5055282;28;20021;-56
2022/06/01 00:02:59;;;;;;;2.75;2.15;;;10.60;99.90;;;;;;5055174;28;20390;-59
2022/06/01 00:05:25;;;;;;;4.22;2.17;;;10.90;99.90;;;;;;5053858;28;20123;-59
2022/06/01 00:07:51;;;;;;;4.50;2.58;;;11.10;99.90;;;;;;5054053;28;20065;-56
2022/06/01 00:10:17;;;;;;;2.75;2.00;;;11.30;99.90;;;;;;5053731;28;20049;-57
2022/06/01 00:12:44;;;;;;;3.20;2.22;;;11.40;99.90;;;;;;5054046;28;20459;-59
2022/06/01 00:15:12;;;;;;;4.78;2.40;;;11.60;99.90;;;;;;5054299;28;20025;-59
2022/06/01 00:17:38;;;;;;;2.75;2.20;;;11.60;99.90;;;;;;5055435;28;20450;-59
2022/06/01 00:20:04;;;;;;;4.10;2.88;;;11.60;99.90;;;;;;5053985;28;20025;-59
2022/06/01 00:22:31;;;;;;;4.13;2.38;;;11.50;99.90;;;;;;5054754;28;20067;-59
2022/06/01 00:24:57;;;;;;;3.63;2.53;;;11.40;99.90;;;;;;5054779;28;20032;-58
2022/06/01 00:27:23;;;;;;;3.90;2.55;;;11.50;99.90;;;;;;5053375;28;20021;-59
2022/06/01 00:29:49;;;;;;;3.35;2.25;;;11.60;99.90;;;;;;5054998;28;20025;-59
2022/06/01 00:32:16;;;;;;;4.55;2.17;;;11.50;99.90;;;;;;5052848;28;20023;-58
2022/06/01 00:34:42;;;;;;;4.38;2.58;;;11.50;99.90;;;;;;5054822;28;20032;-56
2022/06/01 00:37:09;;;;;;;2.83;2.00;;;11.50;99.90;;;;;;5053245;28;20047;-58
2022/06/01 00:39:36;;;;;;;2.40;2.20;;;11.40;99.90;;;;;;5054534;28;20032;-57
2022/06/01 00:42:21;;;;;;;2.08;1.85;;;11.30;99.90;;;;;;5054457;28;20029;-59
2022/06/01 00:44:47;;;;;;;5.07;2.35;;;11.20;99.90;;;;;;5054610;28;20027;-58
2022/06/01 00:47:17;;;;;;;3.80;2.10;;;11.10;99.90;;;;;;5053100;28;20025;-59
2022/06/01 00:50:10;;;;;;;2.95;1.95;;;11.10;99.90;;;;;;5054465;28;20044;-57
2022/06/01 00:52:45;;;;;;;3.63;1.80;;;11.20;99.90;;;;;;5053500;28;20490;-59
2022/06/01 00:55:19;;;;;;;4.15;1.98;;;11.10;99.90;;;;;;5053721;28;20017;-57
2022/06/01 00:57:49;;;;;;;3.03;1.60;;;11.00;99.90;;;;;;5054455;28;20021;-59
2022/06/01 01:00:23;;;;;;;4.10;2.08;;;11.10;99.90;;;;;;5052781;28;20496;-59
2022/06/01 01:02:52;;;;;;;2.50;2.00;;;11.10;99.90;;;;;;5052946;28;20051;-59
2022/06/01 01:05:18;;;;;;;10.43;2.58;;;11.10;99.90;;;;;;5054121;28;20079;-57
2022/06/01 01:07:44;;;;;;;2.85;2.05;;;11.10;99.90;;;;;;5053806;28;20025;-59
2022/06/01 01:10:12;;;;;;;3.30;1.75;;;11.10;99.90;;;;;;5052953;28;20094;-59
2022/06/01 01:12:57;;;;;;;3.70;2.00;;;11.20;99.90;;;;;;5053450;28;20021;-59
2022/06/01 01:15:41;;;;;;;3.25;2.28;;;11.30;99.90;;;;;;5052482;28;20368;-60
2022/06/01 01:18:11;;;;;;;4.97;2.17;;;11.50;99.90;;;;;;5052845;28;20029;-59
2022/06/01 01:21:04;;;;;;;4.53;2.33;;;11.50;99.90;;;;;;5054072;28;20029;-59
2022/06/01 01:23:57;;;;;;;5.50;2.35;;;11.60;99.90;;;;;;5052655;28;20213;-59
2022/06/01 01:26:25;;;;;;;2.20;1.98;;;11.50;99.90;;;;;;5052584;28;20115;-59
2022/06/01 01:28:52;;;;;;;4.43;2.17;;;11.40;99.90;;;;;;5052400;28;20040;-59
2022/06/01 01:31:21;;;;;;;2.92;2.13;;;11.40;99.90;;;;;;5053032;28;20112;-59
2022/06/01 01:33:49;;;;;;;3.95;1.95;;;11.40;99.90;;;;;;5052293;28;20021;-59
2022/06/01 01:36:16;;;;;;;2.65;2.08;;;11.40;99.90;;;;;;5052056;28;20028;-59
2022/06/01 01:38:54;;;;;;;4.85;2.03;;;11.40;99.90;;;;;;5052367;28;20031;-59
2022/06/01 01:41:22;;;;;;;3.30;2.13;;;11.40;99.90;;;;;;5052287;28;20033;-57
2022/06/01 01:44:04;;;;;;;3.42;2.40;;;11.50;99.90;;;;;;5051863;28;20048;-58
2022/06/01 01:46:30;;;;;;;4.20;2.00;;;11.60;99.90;;;;;;5053206;28;20025;-59
2022/06/01 01:48:56;;;;;;;2.35;1.92;;;11.60;99.90;;;;;;5053252;28;20475;-56
2022/06/01 01:51:25;;;;;;;3.20;1.88;;;11.60;99.90;;;;;;5052530;28;20029;-58
2022/06/01 01:53:51;;;;;;;3.00;2.20;;;11.50;99.90;;;;;;5053710;28;20057;-57
2022/06/01 01:56:41;;;;;;;4.75;2.08;;;11.50;99.90;;;;;;5053094;28;20018;-56
2022/06/01 01:59:30;;;;;;;5.15;2.08;;;11.40;99.90;;;;;;5051849;28;20051;-57
2022/06/01 02:02:02;;;;;;;7.65;2.25;;;11.50;99.90;;;;;;5053208;28;20159;-58
2022/06/01 02:07:59;;;;;;;3.58;2.28;;;11.50;99.90;;;;;;5053354;28;20039;-59
2022/06/01 02:13:12;;;;;;;4.57;2.40;;;11.30;99.90;;;;;;5052967;28;20032;-59
2022/06/01 02:15:43;;;;;;;3.30;2.33;;;11.30;99.90;;;;;;5051669;28;20031;-58
2022/06/01 02:18:16;;;;;;;8.80;2.58;;;11.40;99.90;;;;;;5051753;28;20079;-59
2022/06/01 02:20:46;;;;;;;5.38;2.38;;;11.60;99.90;;;;;;5052434;28;20029;-59
2022/06/01 02:23:14;;;;;;;2.95;2.40;;;11.70;99.90;;;;;;5052827;28;20075;-59
2022/06/01 02:25:44;;;;;;;4.30;2.45;;;11.70;99.90;;;;;;5051402;28;20025;-59
2022/06/01 02:28:11;;;;;;;3.25;2.10;;;11.70;99.90;;;;;;5053252;28;20168;-59
2022/06/01 02:30:42;;;;;;;4.40;2.38;;;11.60;99.90;;;;;;5051349;28;20112;-59
2022/06/01 02:33:17;;;;;;;3.30;2.58;;;11.60;99.90;;;;;;5051410;28;20025;-59
2022/06/01 02:35:48;;;;;;;4.63;3.10;;;11.60;99.90;;;;;;5052830;28;20024;-56
2022/06/01 02:38:20;;;;;;;3.33;1.97;;;11.50;99.90;;;;;;5051279;28;20032;-59
2022/06/01 02:40:46;;;;;;;2.25;2.00;;;11.50;99.90;;;;;;5052908;28;20025;-58
2022/06/01 02:43:11;;;;;;;5.10;2.80;;;11.40;99.90;;;;;;5052724;28;20036;-59
2022/06/01 02:45:37;;;;;;;2.47;2.20;;;11.40;99.90;;;;;;5052708;28;20100;-59
2022/06/01 02:48:04;;;;;;;3.42;2.10;;;11.50;99.90;;;;;;5052529;28;20032;-59
2022/06/01 02:50:31;;;;;;;3.97;2.15;;;11.50;99.90;;;;;;5051131;28;20021;-57
2022/06/01 02:52:58;;;;;;;2.78;2.10;;;11.60;99.90;;;;;;5051329;28;20118;-58
2022/06/01 02:55:24;;;;;;;5.57;2.17;;;11.50;99.90;;;;;;5052987;28;20029;-58
2022/06/01 02:57:51;;;;;;;5.18;2.00;;;11.50;99.90;;;;;;5056519;28;20029;-56
2022/06/01 03:00:24;;;;;;;4.72;2.03;;;11.50;99.90;;;;;;5055068;28;20207;-57
2022/06/01 03:02:52;;;;;;;4.15;1.98;;;11.50;99.90;;;;;;5055124;28;20113;-58
2022/06/01 03:05:20;;;;;;;3.28;2.65;;;11.60;99.90;;;;;;5056228;28;20106;-57
2022/06/01 03:07:46;;;;;;;12.07;3.00;;;11.70;99.90;;;;;;5055278;28;20029;-57
2022/06/01 03:10:12;;;;;;;14.15;4.13;;;11.80;99.90;;;;;;5055098;28;20066;-55
2022/06/01 03:12:38;;;;;;;6.07;3.60;;;11.50;99.90;;;;;;5056148;28;20032;-57
2022/06/01 03:15:07;;;;;;;7.00;4.00;;;11.30;99.90;;;;;;5055100;28;20092;-55
2022/06/01 03:17:33;;;;;;;4.30;3.42;;;11.10;99.90;;;;;;5056095;28;20081;-59
2022/06/01 03:19:58;;;;;;;5.32;3.40;;;11.00;99.90;;;;;;5055839;28;20108;-58
2022/06/01 03:22:25;;;;;;;4.32;3.10;;;11.00;99.90;;;;;;5055109;28;20120;-58
2022/06/01 03:24:50;;;;;;;7.55;3.90;;;10.90;99.90;;;;;;5054907;28;20095;-57
2022/06/01 03:27:17;;;;;;;5.82;3.63;;;10.90;99.90;;;;;;5054540;28;20061;-57
2022/06/01 03:29:43;;;;;;;5.78;3.90;;;10.80;99.90;;;;;;5055908;28;20098;-58
2022/06/01 03:32:09;;;;;;;7.00;5.20;;;10.70;99.90;;;;;;5056125;28;20027;-56
2022/06/01 03:34:35;;;;;;;6.57;4.22;;;10.60;99.90;;;;;;5055258;28;20468;-56
2022/06/01 03:37:02;;;;;;;7.72;3.92;;;10.50;99.90;;;;;;5054396;28;20025;-58
2022/06/01 03:39:28;;;;;;;6.50;4.13;;;10.40;99.90;;;;;;5055235;28;20029;-59
2022/06/01 03:41:54;;;;;;;8.82;4.00;;;10.50;99.90;;;;;;5055782;28;20020;-57
2022/06/01 03:47:09;;;;;;;4.68;3.28;;;10.40;99.90;;;;;;5056052;28;20087;-54
2022/06/01 03:49:35;;;;;;;7.28;3.85;;;10.40;99.90;;;;;;5054339;28;20057;-58
2022/06/01 03:52:01;;;;;;;5.70;3.67;;;10.40;99.90;;;;;;5054181;28;20028;-55
2022/06/01 03:54:27;;;;;;;6.43;3.33;;;10.20;99.90;;;;;;5054381;28;20021;-58
2022/06/01 03:56:53;;;;;;;6.55;3.50;;;10.20;99.90;;;;;;5054578;28;20017;-57
2022/06/01 03:59:18;;;;;;;5.57;3.72;;;10.10;99.90;;;;;;5055343;28;20438;-58
2022/06/01 04:01:44;;;;;;;7.15;4.05;;;10.00;99.90;;;;;;5054064;28;20036;-57
2022/06/01 04:04:09;;;;;;;5.25;3.78;;;10.00;99.90;;;;;;5054830;28;20028;-58
2022/06/01 04:06:35;;;;;;;6.72;4.22;;;9.90;99.90;;;;;;5053643;28;20522;-57
2022/06/01 04:09:01;;;;;;;5.22;3.10;;;9.90;99.90;;;;;;5053985;28;20082;-58
2022/06/01 04:11:26;;;;;;;5.78;3.40;;;10.10;99.90;;;;;;5054839;28;20032;-55
2022/06/01 04:13:52;;;;;;;5.65;3.20;;;10.20;99.90;;;;;;5053755;28;20032;-57
2022/06/01 04:16:19;;;;;;;4.75;2.92;;;10.30;99.90;;;;;;5054909;28;20056;-59
2022/06/01 04:18:48;;;;;;;6.30;3.83;;;10.20;99.90;;;;;;5053651;28;20037;-56
2022/06/01 04:21:21;;;;;;;7.45;3.22;;;10.30;99.90;;;;;;5053965;28;20055;-58
2022/06/01 04:23:47;;;;;;;5.28;3.80;;;10.50;99.90;;;;;;5054992;28;20033;-59
2022/06/01 04:26:16;;;;;;;6.85;3.92;;;11.00;99.90;;;;;;5053646;28;20601;-57
2022/06/01 04:28:42;;;;;;;9.82;3.45;;;11.40;99.90;;;;;;5055036;28;20114;-55
2022/06/01 04:31:08;;;;;;;6.53;3.50;;;11.80;99.90;;;;;;5054768;28;20464;-57
2022/06/01 04:33:34;;;;;;;10.50;3.17;;;12.20;99.90;;;;;;5055392;28;20151;-59
2022/06/01 04:35:59;;;;;;;10.68;4.13;;;12.50;99.90;;;;;;5053864;28;20017;-58
2022/06/01 04:38:26;;;;;;;4.80;2.97;;;12.80;99.90;;;;;;5054187;28;20025;-59
2022/06/01 04:40:52;;;;;;;4.13;2.70;;;13.00;99.90;;;;;;5055047;28;20051;-57
2022/06/01 04:43:21;;;;;;;8.00;3.28;;;13.00;99.90;;;;;;5053767;28;20460;-59
2022/06/01 04:45:50;;;;;;;6.93;3.13;;;12.90;99.90;;;;;;5054889;28;20037;-59
2022/06/01 04:48:16;;;;;;;9.25;3.60;;;12.90;99.90;;;;;;5053487;28;20376;-59
2022/06/01 04:50:42;;;;;;;6.80;3.38;;;13.00;99.90;;;;;;5055107;28;20056;-58
2022/06/01 04:53:12;;;;;;;4.57;2.65;;;13.30;99.90;;;;;;5053551;28;20024;-59
2022/06/01 04:55:39;;;;;;;3.88;2.88;;;13.70;99.90;;;;;;5054787;28;20039;-58
2022/06/01 04:58:05;;;;;;;4.30;2.78;;;13.90;99.90;;;;;;5054240;28;20025;-58
2022/06/01 05:00:33;;;;;;;5.85;2.42;;;14.30;99.90;;;;;;5054596;28;20506;-59
2022/06/01 05:02:59;;;;;;;4.72;2.40;;;14.60;99.90;;;;;;5054894;28;20108;-59
2022/06/01 05:05:24;;;;;;;2.97;2.40;;;14.80;99.90;;;;;;5053275;28;20025;-63
2022/06/01 05:07:50;;;;;;;4.22;2.63;;;14.70;99.90;;;;;;5053710;28;20116;-60
2022/06/01 05:10:16;;;;;;;4.22;2.80;;;14.50;99.90;;;;;;5054453;28;20159;-58
2022/06/01 05:12:41;;;;;;;8.77;2.92;;;14.40;99.90;;;;;;5054524;28;20049;-58
2022/06/01 05:15:08;;;;;;;3.65;2.17;;;14.30;99.90;;;;;;5053066;28;20114;-55
2022/06/01 05:17:34;;;;;;;3.22;2.60;;;14.20;99.90;;;;;;5054492;28;20032;-56
2022/06/01 05:20:00;;;;;;;10.85;2.72;;;14.20;99.90;;;;;;5054847;28;20025;-59
2022/06/01 05:22:26;;;;;;;3.42;2.75;;;14.30;99.90;;;;;;5052921;28;20116;-61
2022/06/01 05:24:52;;;;;;;4.03;2.83;;;14.40;99.90;;;;;;5053327;28;20119;-59
2022/06/01 05:27:17;;;;;;;6.60;2.67;;;14.40;99.90;;;;;;5053998;28;20021;-60
2022/06/01 05:29:43;;;;;;;5.85;2.30;;;14.50;99.90;;;;;;5052883;28;20104;-59
2022/06/01 05:32:11;;;;;;;3.10;2.45;;;14.90;99.90;;;;;;5054042;28;20025;-61
2022/06/01 05:34:36;;;;;;;5.93;2.70;;;15.20;99.90;;;;;;5053010;28;20021;-59
2022/06/01 05:37:02;;;;;;;7.68;2.72;;;15.20;99.90;;;;;;5054204;28;20028;-60
2022/06/01 05:39:28;;;;;;;4.90;2.53;;;15.50;99.90;;;;;;5053916;28;20024;-61
2022/06/01 05:41:54;;;;;;;5.05;2.30;;;15.90;99.90;;;;;;5054365;28;20031;-58
2022/06/01 05:44:19;;;;;;;3.13;1.92;;;16.30;99.90;;;;;;5052496;28;20021;-60
2022/06/01 05:46:45;;;;;;;4.65;2.28;;;16.90;99.90;;;;;;5053370;28;20028;-60
2022/06/01 05:49:13;;;;;;;6.45;2.70;;;17.60;99.90;;;;;;5052652;28;20068;-60
2022/06/01 05:51:38;;;;;;;3.88;2.13;;;18.10;99.90;;;;;;5053641;28;20051;-61
2022/06/01 05:54:04;;;;;;;3.40;2.13;;;18.50;99.90;;;;;;5052604;28;20029;-62
2022/06/01 05:56:30;;;;;;;3.65;2.17;;;19.20;99.90;;;;;;5052515;28;20021;-62
2022/06/01 05:58:56;;;;;;;4.65;2.25;;;19.90;99.90;;;;;;5053955;28;20025;-61
2022/06/01 06:01:22;;;;;;;3.53;2.35;;;20.10;99.90;;;;;;5052305;28;20021;-61
2022/06/01 06:03:48;;;;;;;4.30;2.30;;;20.70;99.90;;;;;;5053773;28;20387;-61
2022/06/01 06:06:17;;;;;;;3.38;2.28;;;21.30;99.90;;;;;;5053445;28;20052;-62
2022/06/01 06:08:55;;;;;;;2.67;2.03;;;21.80;99.90;;;;;;5052406;28;20112;-63
2022/06/01 06:11:26;;;;;;;2.47;2.00;;;22.40;99.90;;;;;;5053759;28;20025;-63
2022/06/01 06:13:52;;;;;;;4.82;2.30;;;22.80;99.90;;;;;;5053096;28;20021;-63
2022/06/01 06:16:18;;;;;;;5.75;3.20;;;23.30;99.90;;;;;;5053534;28;20036;-62
2022/06/01 06:18:44;;;;;;;3.47;2.80;;;23.80;99.90;;;;;;5052304;28;20560;-62
2022/06/01 06:21:10;;;;;;;2.58;2.38;;;23.90;99.90;;;;;;5053295;28;20059;-61
2022/06/01 06:23:36;;;;;;;2.95;2.38;;;23.50;99.90;;;;;;5052080;28;20033;-62
2022/06/01 06:26:03;;;;;;;3.13;2.53;;;23.60;99.90;;;;;;5052333;28;20119;-65
2022/06/01 06:28:29;;;;;;;3.28;2.35;;;24.00;99.90;;;;;;5052117;28;20029;-63
2022/06/01 06:30:55;;;;;;;5.50;2.38;;;24.50;99.90;;;;;;5051516;28;20044;-63
2022/06/01 06:33:21;;;;;;;4.60;2.55;;;25.00;99.90;;;;;;5053138;28;20071;-64
2022/06/01 06:35:59;;;;;;;4.38;2.63;;;25.30;99.90;;;;;;5052461;28;20033;-63
2022/06/01 06:38:27;;;;;;;10.95;6.80;;;26.10;99.90;;;;;;5053108;28;20131;-64
2022/06/01 06:40:54;;;;;;;3.70;2.67;;;26.60;99.60;;;;;;5052090;28;20021;-62
2022/06/01 06:43:21;;;;;;;4.10;2.47;;;27.20;97.60;;;;;;5052259;28;20052;-62
2022/06/01 06:45:55;;;;;;;3.67;2.20;;;27.80;98.60;;;;;;5051929;28;20387;-62
2022/06/01 06:48:20;;;;;;;3.92;2.58;;;28.00;97.30;;;;;;5053553;28;20094;-63
2022/06/01 06:50:46;;;;;;;4.15;2.40;;;28.50;95.90;;;;;;5051884;28;20021;-64
2022/06/01 06:53:12;;;;;;;3.17;2.03;;;28.30;93.80;;;;;;5051826;28;20025;-65
2022/06/01 06:55:38;;;;;;;6.68;2.80;;;28.80;93.50;;;;;;5051713;28;20025;-64
2022/06/01 06:58:07;;;;;;;4.70;2.45;;;28.90;92.20;;;;;;5053017;28;20096;-63
2022/06/01 07:00:32;;;;;;;4.82;2.17;;;29.40;91.80;;;;;;5051651;28;20029;-65
2022/06/01 07:02:58;;;;;;;5.25;1.85;;;29.80;88.00;;;;;;5052937;28;20021;-64
2022/06/01 07:08:07;;;;;;;3.13;2.42;;;30.50;86.70;;;;;;5053308;28;20032;-65
2022/06/01 07:10:33;;;;;;;2.15;1.95;;;30.70;83.10;;;;;;5052475;28;20017;-64
2022/06/01 07:12:59;;;;;;;4.10;2.30;;;30.50;82.00;;;;;;5052909;28;20025;-64
2022/06/01 07:15:25;;;;;;;5.60;2.30;;;30.70;79.10;;;;;;5052685;28;20029;-61
2022/06/01 07:17:51;;;;;;;2.42;2.22;;;30.60;78.90;;;;;;5051519;28;20033;-61
2022/06/01 07:20:17;;;;;;;3.40;2.85;;;31.10;77.30;;;;;;5053312;28;20383;-62
2022/06/01 07:22:43;;;;;;;4.40;1.70;;;31.20;76.70;;;;;;5051809;28;20032;-59
2022/06/01 07:25:10;;;;;;;5.43;2.08;;;31.60;74.10;;;;;;5051736;28;20025;-62
2022/06/01 07:27:36;;;;;;;2.67;1.77;;;31.80;74.00;;;;;;5051405;28;20090;-62
2022/06/01 07:30:04;;;;;;;2.05;1.88;;;32.80;71.80;;;;;;5052639;28;20056;-62
2022/06/01 07:32:29;;;;;;;6.32;3.85;;;32.60;69.80;;;;;;5052514;28;20029;-61
2022/06/01 07:34:55;;;;;;;5.53;2.10;;;32.40;69.60;;;;;;5052564;28;20116;-61
2022/06/01 07:43:08;;;;;;;3.15;2.05;;;34.10;66.30;;;;;;5054020;28;20575;-62
2022/06/01 07:45:35;;;;;;;1.58;1.45;;;34.00;63.40;;;;;;5056445;28;20033;-63
2022/06/01 07:48:02;;;;;;;3.10;1.42;;;34.00;63.70;;;;;;5054913;28;20026;-65
2022/06/01 07:50:28;;;;;;;1.40;1.20;;;34.90;60.10;;;;;;5056081;28;20021;-60
2022/06/01 07:52:54;;;;;;;5.65;1.27;;;34.40;60.90;;;;;;5055994;28;20021;-57
2022/06/01 07:55:20;;;;;;;5.32;1.58;;;34.70;61.20;;;;;;5054693;28;20013;-61
2022/06/01 07:57:45;;;;;;;2.75;1.70;;;34.80;58.60;;;;;;5056041;28;20440;-64
2022/06/01 08:00:12;;;;;;;3.28;2.13;;;34.60;58.60;;;;;;5054629;28;20506;-64
2022/06/01 08:02:38;;;;;;;5.55;1.38;;;35.40;57.10;;;;;;5056087;28;20025;-60
2022/06/01 08:05:05;;;;;;;2.30;1.08;;;35.90;54.60;;;;;;5054735;28;20025;-59
2022/06/01 08:07:31;;;;;;;1.77;1.08;;;35.60;54.30;;;;;;5055448;28;20523;-62
2022/06/01 08:09:56;;;;;;;4.60;1.48;;;35.60;52.10;;;;;;5054399;28;20032;-61
2022/06/01 08:15:08;;;;;;;2.50;1.00;;;35.80;50.70;;;;;;5055715;28;20559;-62
2022/06/01 08:17:33;;;;;;;3.00;2.45;;;36.10;51.40;;;;;;5055729;28;20104;-63
2022/06/01 08:19:59;;;;;;;3.05;1.25;;;35.80;50.90;;;;;;5054236;28;20056;-62
2022/06/01 08:22:25;;;;;;;2.97;0.90;;;36.30;50.70;;;;;;5054653;28;20074;-61
2022/06/01 08:24:50;;;;;;;2.08;1.02;;;36.60;51.60;;;;;;5054646;28;20032;-61
2022/06/01 08:27:16;;;;;;;1.50;0.85;;;36.90;51.50;;;;;;5054441;28;20025;-59
2022/06/01 08:29:42;;;;;;;8.52;1.42;;;36.40;50.50;;;;;;5054046;28;20079;-58
2022/06/01 08:32:07;;;;;;;3.65;1.42;;;36.10;50.70;;;;;;5054030;28;20123;-60
2022/06/01 08:34:35;;;;;;;1.48;1.08;;;36.30;50.30;;;;;;5053965;28;20023;-60
2022/06/01 08:37:01;;;;;;;1.15;1.02;;;37.00;50.10;;;;;;5054250;28;20025;-58
2022/06/01 08:39:26;;;;;;;1.10;0.90;;;38.00;46.80;;;;;;5055124;28;20036;-58
2022/06/01 08:41:52;;;;;;;1.35;1.10;;;37.50;50.00;;;;;;5053870;28;20022;-59
2022/06/01 08:44:35;;;;;;;1.40;1.30;;;37.30;49.00;;;;;;5054964;28;20021;-60
2022/06/01 08:47:09;;;;;;;3.53;1.23;;;37.60;49.10;;;;;;5053801;28;20032;-61
2022/06/01 08:49:39;;;;;;;1.70;1.20;;;37.30;50.50;;;;;;5054926;28;20032;-61
2022/06/01 08:52:05;;;;;;;2.43;2.23;;;36.50;49.20;;;;;;5053576;28;20537;-61
2022/06/01 08:54:31;;;;;;;1.90;1.60;;;36.10;49.20;;;;;;5053364;28;20071;-60
2022/06/01 08:57:09;;;;;;;1.92;1.00;;;36.20;49.50;;;;;;5054776;28;20027;-61
2022/06/01 09:00:06;;;;;;;3.70;1.25;;;36.50;48.90;;;;;;5053494;28;20029;-61
2022/06/01 09:02:38;;;;;;;1.40;1.10;;;35.90;49.40;;;;;;5053494;28;20112;-61
2022/06/01 09:05:34;;;;;;;1.40;0.88;;;34.50;50.00;;;;;;5054523;28;20053;-61
2022/06/01 09:08:33;;;;;;;2.22;1.30;;;33.20;51.30;;;;;;5053246;28;20120;-61
2022/06/01 09:11:07;;;;;;;4.43;0.90;;;31.70;52.70;;;;;;5053330;28;20059;-61
2022/06/01 09:13:59;;;;;;;1.10;1.00;;;31.00;53.30;;;;;;5054557;28;20109;-60
2022/06/01 09:16:50;;;;;;;0.98;0.90;;;31.30;54.10;;;;;;5054357;28;20060;-61
2022/06/01 09:19:22;;;;;;;1.63;1.10;;;33.10;52.30;;;;;;5053206;28;20074;-61
2022/06/01 09:24:50;;;;;;;1.38;0.98;;;35.70;50.10;;;;;;5054484;28;20060;-61
2022/06/01 09:27:16;;;;;;;3.33;1.25;;;35.90;47.80;;;;;;5054261;28;20032;-61
2022/06/01 09:29:52;;;;;;;1.25;1.15;;;36.20;48.40;;;;;;5054205;28;20132;-61
2022/06/01 09:32:33;;;;;;;4.20;3.40;;;37.20;47.60;;;;;;5054043;28;20091;-61
2022/06/01 09:35:05;;;;;;;1.88;0.98;;;37.80;47.20;;;;;;5052744;28;20111;-60
2022/06/01 09:37:46;;;;;;;1.35;0.90;;;37.80;45.60;;;;;;5053951;28;20021;-62
2022/06/01 09:40:31;;;;;;;0.88;0.80;;;38.00;44.30;;;;;;5053728;28;20110;-62
2022/06/01 09:43:01;;;;;;;0.95;0.80;;;37.70;44.70;;;;;;5052769;28;20024;-62
2022/06/01 09:45:38;;;;;;;1.30;0.80;;;37.40;43.70;;;;;;5052883;28;20390;-61
2022/06/01 09:48:24;;;;;;;1.80;1.08;;;37.90;45.10;;;;;;5053802;28;20028;-62
2022/06/01 09:51:07;;;;;;;2.75;1.10;;;38.30;44.20;;;;;;5052582;28;20049;-62
2022/06/01 09:53:41;;;;;;;1.05;0.90;;;38.60;44.40;;;;;;5052696;28;20081;-62
2022/06/01 09:56:07;;;;;;;1.25;0.90;;;38.70;43.30;;;;;;5052383;28;20017;-62
2022/06/01 10:07:28;;;;;;;4.93;1.42;;;36.50;46.70;;;;;;5053198;28;20040;-59
2022/06/01 10:10:04;;;;;;;6.80;1.45;;;35.20;48.80;;;;;;5052606;28;20067;-61
2022/06/01 10:12:50;;;;;;;5.68;1.90;;;34.60;47.60;;;;;;5053464;28;20029;-61
2022/06/01 10:15:33;;;;;;;2.75;1.40;;;35.10;46.40;;;;;;5053382;28;20036;-61
2022/06/01 10:18:16;;;;;;;2.83;0.60;;;35.20;45.10;;;;;;5052189;28;20029;-61
2022/06/01 10:20:58;;;;;;;8.98;2.70;;;35.20;45.60;;;;;;5053370;28;20080;-61
2022/06/01 10:23:52;;;;;;;1.85;0.88;;;34.50;46.90;;;;;;5053631;28;20484;-63
2022/06/01 10:26:33;;;;;;;9.13;1.70;;;34.60;48.90;;;;;;5052369;28;20025;-61
2022/06/01 10:29:23;;;;;;;4.43;1.70;;;34.10;47.70;;;;;;5053681;28;20025;-59
2022/06/01 10:32:09;;;;;;;18.77;3.00;;;33.20;48.60;;;;;;5053493;28;20044;-60
2022/06/01 10:34:39;;;;;;;5.55;1.70;;;32.50;50.80;;;;;;5053438;28;20143;-62
2022/06/01 10:37:30;;;;;;;5.47;1.50;;;32.10;49.10;;;;;;5052338;28;20017;-64
2022/06/01 10:40:19;;;;;;;3.33;1.60;;;31.70;49.50;;;;;;5053202;28;20048;-62
2022/06/01 10:45:52;;;;;;;4.93;1.90;;;31.00;51.50;;;;;;5053427;28;20078;-61
2022/06/01 10:48:44;;;;;;;20.30;3.30;;;30.30;52.30;;;;;;5052692;28;20032;-60
2022/06/01 10:51:15;;;;;;;3.05;0.93;;;29.40;52.50;;;;;;5051877;28;20026;-62
2022/06/01 10:54:10;;;;;;;2.17;0.95;;;29.30;53.60;;;;;;5052384;28;20021;-63
2022/06/01 10:56:37;;;;;;;4.28;1.40;;;29.00;53.90;;;;;;5047709;28;20033;-60
2022/06/01 10:59:07;;;;;;;2.58;0.90;;;28.70;54.10;;;;;;5051815;28;20037;-63
2022/06/01 11:01:52;;;;;;;;;;;28.50;53.10;;;;;;5053763;28;20028;-61
2022/06/01 11:04:32;;;;;;;2.08;0.80;;;28.40;54.30;;;;;;5051657;28;19905;-63
2022/06/01 11:07:25;;;;;;;0.93;0.73;;;28.00;52.80;;;;;;5053145;28;20072;-64
2022/06/01 11:10:25;;;;;;;2.15;0.80;;;27.70;55.80;;;;;;5051755;28;20358;-64
2022/06/01 11:12:57;;;;;;;2.97;1.25;;;27.30;54.40;;;;;;5052953;28;20021;-64
2022/06/01 11:15:30;;;;;;;2.88;0.70;;;26.70;56.00;;;;;;5052876;28;20018;-60
2022/06/01 11:18:18;;;;;;;1.45;0.68;;;26.50;55.20;;;;;;5054398;28;20040;-61
2022/06/01 11:20:59;;;;;;;9.07;1.45;;;26.60;56.00;;;;;;5056801;28;20465;-62
2022/06/01 11:23:40;;;;;;;4.40;0.80;;;26.60;57.00;;;;;;5056226;28;20036;-59
2022/06/01 11:26:20;;;;;;;6.60;0.80;;;26.50;54.70;;;;;;5056585;28;20270;-58
2022/06/01 11:29:11;;;;;;;2.25;0.82;;;26.40;56.20;;;;;;5055632;28;20056;-58
2022/06/01 11:31:39;;;;;;;1.55;0.90;;;26.00;59.00;;;;;;5056697;28;20158;-59
2022/06/01 11:34:19;;;;;;;2.47;0.75;;;25.80;58.00;;;;;;5056378;28;20455;-62
2022/06/01 11:37:19;;;;;;;1.17;0.65;;;25.80;57.60;;;;;;5056479;28;20032;-63
2022/06/01 11:40:01;;;;;;;1.55;0.40;;;25.80;57.30;;;;;;5055243;28;20120;-60
2022/06/01 11:42:58;;;;;;;0.43;0.40;;;25.70;55.40;;;;;;5056559;28;20028;-61
2022/06/01 11:45:33;;;;;;;1.33;0.77;;;25.80;57.50;;;;;;5051106;28;20029;-60
2022/06/01 11:48:29;;;;;;;1.67;0.60;;;25.80;57.10;;;;;;5056330;28;20056;-62
2022/06/01 11:51:16;;;;;;;1.38;0.70;;;25.80;56.50;;;;;;5054897;28;20017;-63
2022/06/01 11:53:41;;;;;;;0.90;0.50;;;25.70;56.80;;;;;;5056166;28;20032;-62
2022/06/01 11:56:28;;;;;;;3.00;0.65;;;25.60;56.50;;;;;;5055995;28;20018;-54
2022/06/01 11:59:05;;;;;;;0.80;0.50;;;25.50;57.00;;;;;;5054740;28;20021;-50
2022/06/01 12:01:36;;;;;;;1.17;0.55;;;25.30;56.60;;;;;;5056151;28;20028;-54
2022/06/01 12:04:17;;;;;;;;;;;25.10;57.90;;;;;;5055234;28;20028;-53
2022/06/01 12:06:45;;;;;;;3.17;0.90;;;25.10;56.90;;;;;;5054489;28;19917;-52
2022/06/01 12:09:18;;;;;;;1.23;0.45;;;25.20;57.20;;;;;;5054460;28;20029;-52
2022/06/01 12:11:46;;;;;;;2.17;0.80;;;25.20;57.50;;;;;;5055646;28;20028;-55
2022/06/01 12:14:39;;;;;;;0.50;0.50;;;25.00;57.40;;;;;;5055648;28;20027;-54
2022/06/01 12:17:20;;;;;;;2.75;0.60;;;24.70;57.40;;;;;;5055625;28;20025;-55
2022/06/01 12:19:47;;;;;;;;;;;24.70;57.80;;;;;;5054983;28;20483;-53
2022/06/01 12:28:36;;;;;;;1.17;0.47;;;24.80;59.70;;;;;;5054568;28;20120;-56
2022/06/01 12:31:12;;;;;;;1.58;0.60;;;24.90;58.40;;;;;;5055522;28;20021;-50
2022/06/01 12:34:04;;;;;;;0.57;0.52;;;24.90;58.20;;;;;;5055377;28;20495;-54
2022/06/01 12:36:36;;;;;;;1.38;0.55;;;24.70;58.80;;;;;;5054036;28;20111;-56
2022/06/01 12:39:13;;;;;;;1.00;0.60;;;24.60;57.30;;;;;;5053850;28;20147;-50
2022/06/01 12:41:40;;;;;;;1.50;0.45;;;24.60;59.00;;;;;;5055221;28;20502;-50
2022/06/01 12:44:09;;;;;;;0.98;0.50;;;24.60;58.40;;;;;;5054683;28;20021;-54
2022/06/01 12:46:48;;;;;;;0.73;0.60;;;24.50;59.10;;;;;;5054085;28;20028;-56
2022/06/01 12:49:36;;;;;;;0.93;0.60;;;24.40;59.30;;;;;;5053757;28;20079;-54
2022/06/01 12:52:11;;;;;;;1.13;0.60;;;24.40;58.70;;;;;;5053768;28;20083;-56
2022/06/01 12:54:51;;;;;;;3.13;0.50;;;24.40;59.70;;;;;;5055146;28;20099;-56
2022/06/01 12:57:25;;;;;;;0.65;0.50;;;24.30;58.60;;;;;;5054865;28;20561;-57
2022/06/01 13:00:16;;;;;;;3.78;0.80;;;24.10;58.90;;;;;;5053543;28;20117;-56
2022/06/01 13:02:43;;;;;;;0.30;0.30;;;24.00;59.00;;;;;;5055163;28;20056;-58
2022/06/01 13:05:24;;;;;;;1.27;0.45;;;24.00;58.10;;;;;;5054941;28;20598;-53
2022/06/01 13:07:57;;;;;;;;;;;24.00;58.80;;;;;;5055309;28;20036;-56
2022/06/01 13:10:32;;;;;;;3.67;0.70;;;24.00;60.60;;;;;;5054557;28;19905;-52
2022/06/01 13:13:11;;;;;;;2.45;0.65;;;24.00;61.80;;;;;;5054573;28;20074;-54
2022/06/01 13:15:38;;;;;;;0.73;0.73;;;24.10;59.60;;;;;;5054274;28;20033;-52
2022/06/01 13:18:11;;;;;;;0.85;0.50;;;24.20;59.00;;;;;;5053175;28;20025;-54
2022/06/01 13:21:10;;;;;;;1.95;0.60;;;24.30;60.40;;;;;;5053168;28;20063;-55
2022/06/01 13:23:41;;;;;;;0.68;0.47;;;24.30;58.40;;;;;;5049328;28;20068;-55
2022/06/01 13:26:10;;;;;;;1.45;0.60;;;24.10;59.50;;;;;;5053081;28;20111;-55
2022/06/01 13:28:35;;;;;;;2.05;0.57;;;24.10;60.60;;;;;;5054257;28;20028;-56
2022/06/01 13:31:02;;;;;;;2.03;0.88;;;24.00;59.50;;;;;;5053246;28;20025;-58
2022/06/01 13:33:41;;;;;;;0.60;0.60;;;24.00;60.20;;;;;;5054184;28;20040;-53
2022/06/01 13:36:09;;;;;;;1.23;0.52;;;24.00;59.90;;;;;;5053516;28;20367;-55
2022/06/01 13:38:47;;;;;;;1.17;0.60;;;23.90;59.50;;;;;;5052991;28;20029;-53
2022/06/01 13:41:21;;;;;;;2.42;0.70;;;23.80;59.50;;;;;;5052743;28;20036;-54
2022/06/01 13:43:49;;;;;;;0.95;0.60;;;23.80;60.30;;;;;;5052832;28;20032;-53
2022/06/01 13:46:37;;;;;;;3.08;0.50;;;23.70;60.00;;;;;;5052639;28;20170;-58
2022/06/01 13:49:07;;;;;;;2.08;0.68;;;23.70;60.00;;;;;;5053480;28;20045;-55
2022/06/01 13:51:34;;;;;;;3.10;0.70;;;23.60;61.50;;;;;;5052920;28;20028;-52